sensor_id;sensor_type;location;lat;lon;timestamp;P1;durP1;ratioP1;P2;durP2;ratioP2
33714;SDS011;20043;50.998;4.754;2024-02-04T00:01:41;33.95;;;23.50;;
33714;SDS011;20043;50.998;4.754;2024-02-04T00:04:06;32.50;;;23.95;;
33714;SDS011;20043;50.998;4.754;2024-02-04T00:06:32;36.33;;;23.23;;
33714;SDS011;20043;50.998;4.754;2024-02-04T00:08:58;31.67;;;22.00;;
33714;SDS011;20043;50.998;4.754;2024-02-04T00:11:24;36.80;;;21.33;;
33714;SDS011;20043;50.998;4.754;2024-02-04T00:13:50;40.50;;;22.50;;
33714;SDS011;20043;50.998;4.754;2024-02-04T00:16:15;30.17;;;20.88;;
33714;SDS011;20043;50.998;4.754;2024-02-04T00:18:41;33.42;;;21.33;;
33714;SDS011;20043;50.998;4.754;2024-02-04T00:21:07;30.90;;;19.92;;
33714;SDS011;20043;50.998;4.754;2024-02-04T00:23:32;31.95;;;20.38;;
33714;SDS011;20043;50.998;4.754;2024-02-04T00:25:58;28.83;;;19.85;;
33714;SDS011;20043;50.998;4.754;2024-02-04T00:28:23;33.40;;;19.75;;
33714;SDS011;20043;50.998;4.754;2024-02-04T00:30:49;31.27;;;19.08;;
33714;SDS011;20043;50.998;4.754;2024-02-04T00:33:17;25.67;;;18.15;;
33714;SDS011;20043;50.998;4.754;2024-02-04T00:35:43;27.70;;;17.77;;
33714;SDS011;20043;50.998;4.754;2024-02-04T00:38:09;30.52;;;18.88;;
33714;SDS011;20043;50.998;4.754;2024-02-04T00:40:34;23.10;;;17.65;;
33714;SDS011;20043;50.998;4.754;2024-02-04T00:43:00;29.65;;;18.33;;
33714;SDS011;20043;50.998;4.754;2024-02-04T00:45:26;27.05;;;17.65;;
33714;SDS011;20043;50.998;4.754;2024-02-04T00:47:51;28.65;;;18.05;;
33714;SDS011;20043;50.998;4.754;2024-02-04T00:50:17;29.05;;;18.00;;
33714;SDS011;20043;50.998;4.754;2024-02-04T00:52:43;26.85;;;17.45;;
33714;SDS011;20043;50.998;4.754;2024-02-04T00:55:09;29.52;;;17.73;;
33714;SDS011;20043;50.998;4.754;2024-02-04T00:57:34;27.85;;;17.02;;
33714;SDS011;20043;50.998;4.754;2024-02-04T01:00:00;32.28;;;18.08;;
33714;SDS011;20043;50.998;4.754;2024-02-04T01:02:26;28.33;;;17.30;;
33714;SDS011;20043;50.998;4.754;2024-02-04T01:04:51;25.75;;;16.83;;
33714;SDS011;20043;50.998;4.754;2024-02-04T01:07:17;28.48;;;16.40;;
33714;SDS011;20043;50.998;4.754;2024-02-04T01:09:42;28.05;;;16.67;;
33714;SDS011;20043;50.998;4.754;2024-02-04T01:12:08;27.65;;;16.17;;
33714;SDS011;20043;50.998;4.754;2024-02-04T01:14:34;29.10;;;16.80;;
33714;SDS011;20043;50.998;4.754;2024-02-04T01:16:59;30.67;;;17.60;;
33714;SDS011;20043;50.998;4.754;2024-02-04T01:19:25;26.77;;;17.25;;
33714;SDS011;20043;50.998;4.754;2024-02-04T01:21:51;27.85;;;16.67;;
33714;SDS011;20043;50.998;4.754;2024-02-04T01:24:16;27.05;;;16.15;;
33714;SDS011;20043;50.998;4.754;2024-02-04T01:26:42;27.92;;;17.05;;
33714;SDS011;20043;50.998;4.754;2024-02-04T01:29:08;27.25;;;17.10;;
33714;SDS011;20043;50.998;4.754;2024-02-04T01:31:33;30.13;;;17.42;;
33714;SDS011;20043;50.998;4.754;2024-02-04T01:33:59;27.02;;;16.58;;
33714;SDS011;20043;50.998;4.754;2024-02-04T01:36:25;27.35;;;17.30;;
33714;SDS011;20043;50.998;4.754;2024-02-04T01:38:50;28.67;;;17.08;;
33714;SDS011;20043;50.998;4.754;2024-02-04T01:41:16;28.20;;;17.60;;
33714;SDS011;20043;50.998;4.754;2024-02-04T01:43:42;32.70;;;16.40;;
33714;SDS011;20043;50.998;4.754;2024-02-04T01:46:08;31.85;;;17.15;;
33714;SDS011;20043;50.998;4.754;2024-02-04T01:48:34;28.45;;;16.80;;
33714;SDS011;20043;50.998;4.754;2024-02-04T01:51:00;32.67;;;16.85;;
33714;SDS011;20043;50.998;4.754;2024-02-04T01:53:27;27.35;;;17.70;;
33714;SDS011;20043;50.998;4.754;2024-02-04T01:55:54;28.42;;;17.25;;
33714;SDS011;20043;50.998;4.754;2024-02-04T01:58:20;28.65;;;16.70;;
33714;SDS011;20043;50.998;4.754;2024-02-04T02:00:47;25.75;;;16.58;;
33714;SDS011;20043;50.998;4.754;2024-02-04T02:03:14;29.20;;;16.90;;
33714;SDS011;20043;50.998;4.754;2024-02-04T02:05:41;30.17;;;17.23;;
33714;SDS011;20043;50.998;4.754;2024-02-04T02:08:07;25.67;;;17.05;;
33714;SDS011;20043;50.998;4.754;2024-02-04T02:10:32;27.67;;;17.60;;
33714;SDS011;20043;50.998;4.754;2024-02-04T02:13:00;23.88;;;17.23;;
33714;SDS011;20043;50.998;4.754;2024-02-04T02:15:43;28.80;;;17.92;;
33714;SDS011;20043;50.998;4.754;2024-02-04T02:18:18;28.75;;;18.17;;
33714;SDS011;20043;50.998;4.754;2024-02-04T02:23:34;29.00;;;18.50;;
33714;SDS011;20043;50.998;4.754;2024-02-04T02:26:02;34.38;;;19.67;;
33714;SDS011;20043;50.998;4.754;2024-02-04T02:28:29;33.88;;;19.95;;
33714;SDS011;20043;50.998;4.754;2024-02-04T02:30:54;35.28;;;20.40;;
33714;SDS011;20043;50.998;4.754;2024-02-04T02:33:20;35.58;;;19.98;;
33714;SDS011;20043;50.998;4.754;2024-02-04T02:35:46;41.78;;;21.52;;
33714;SDS011;20043;50.998;4.754;2024-02-04T02:41:03;35.00;;;21.55;;
33714;SDS011;20043;50.998;4.754;2024-02-04T02:43:31;35.67;;;21.38;;
33714;SDS011;20043;50.998;4.754;2024-02-04T02:45:59;45.28;;;22.58;;
33714;SDS011;20043;50.998;4.754;2024-02-04T02:48:26;36.00;;;21.73;;
33714;SDS011;20043;50.998;4.754;2024-02-04T02:50:53;39.83;;;21.55;;
33714;SDS011;20043;50.998;4.754;2024-02-04T02:53:18;40.03;;;21.45;;
33714;SDS011;20043;50.998;4.754;2024-02-04T02:55:45;43.00;;;22.65;;
33714;SDS011;20043;50.998;4.754;2024-02-04T02:58:11;43.85;;;22.70;;
33714;SDS011;20043;50.998;4.754;2024-02-04T03:00:38;41.47;;;22.52;;
33714;SDS011;20043;50.998;4.754;2024-02-04T03:03:03;42.88;;;24.02;;
33714;SDS011;20043;50.998;4.754;2024-02-04T03:05:29;41.20;;;23.48;;
33714;SDS011;20043;50.998;4.754;2024-02-04T03:07:55;36.42;;;22.02;;
33714;SDS011;20043;50.998;4.754;2024-02-04T03:10:20;47.78;;;23.75;;
33714;SDS011;20043;50.998;4.754;2024-02-04T03:12:46;34.75;;;21.73;;
33714;SDS011;20043;50.998;4.754;2024-02-04T03:15:11;40.97;;;21.80;;
33714;SDS011;20043;50.998;4.754;2024-02-04T03:17:37;38.40;;;21.58;;
33714;SDS011;20043;50.998;4.754;2024-02-04T03:20:03;40.65;;;22.15;;
33714;SDS011;20043;50.998;4.754;2024-02-04T03:22:29;36.72;;;21.77;;
33714;SDS011;20043;50.998;4.754;2024-02-04T03:24:55;34.67;;;21.30;;
33714;SDS011;20043;50.998;4.754;2024-02-04T03:27:20;39.03;;;20.40;;
33714;SDS011;20043;50.998;4.754;2024-02-04T03:29:46;37.00;;;21.60;;
33714;SDS011;20043;50.998;4.754;2024-02-04T03:32:12;35.97;;;20.85;;
33714;SDS011;20043;50.998;4.754;2024-02-04T03:34:38;34.47;;;19.92;;
33714;SDS011;20043;50.998;4.754;2024-02-04T03:37:06;38.90;;;20.23;;
33714;SDS011;20043;50.998;4.754;2024-02-04T03:39:31;36.08;;;19.20;;
33714;SDS011;20043;50.998;4.754;2024-02-04T03:41:57;39.40;;;20.33;;
33714;SDS011;20043;50.998;4.754;2024-02-04T03:44:22;32.47;;;18.67;;
33714;SDS011;20043;50.998;4.754;2024-02-04T03:46:48;35.28;;;19.08;;
33714;SDS011;20043;50.998;4.754;2024-02-04T03:49:15;35.53;;;19.60;;
33714;SDS011;20043;50.998;4.754;2024-02-04T03:51:41;33.88;;;18.95;;
33714;SDS011;20043;50.998;4.754;2024-02-04T03:54:06;37.63;;;18.33;;
33714;SDS011;20043;50.998;4.754;2024-02-04T03:56:32;36.03;;;18.38;;
33714;SDS011;20043;50.998;4.754;2024-02-04T03:58:58;28.15;;;17.27;;
33714;SDS011;20043;50.998;4.754;2024-02-04T04:01:24;34.95;;;18.65;;
33714;SDS011;20043;50.998;4.754;2024-02-04T04:03:49;30.50;;;17.48;;
33714;SDS011;20043;50.998;4.754;2024-02-04T04:06:15;36.00;;;17.83;;
33714;SDS011;20043;50.998;4.754;2024-02-04T04:08:40;24.92;;;16.95;;
33714;SDS011;20043;50.998;4.754;2024-02-04T04:11:09;34.13;;;16.50;;
33714;SDS011;20043;50.998;4.754;2024-02-04T04:13:36;30.67;;;16.48;;
33714;SDS011;20043;50.998;4.754;2024-02-04T04:16:02;28.08;;;16.48;;
33714;SDS011;20043;50.998;4.754;2024-02-04T04:18:29;31.40;;;15.63;;
33714;SDS011;20043;50.998;4.754;2024-02-04T04:20:55;27.75;;;15.55;;
33714;SDS011;20043;50.998;4.754;2024-02-04T04:23:21;25.77;;;15.30;;
33714;SDS011;20043;50.998;4.754;2024-02-04T04:25:46;25.02;;;14.32;;
33714;SDS011;20043;50.998;4.754;2024-02-04T04:28:12;21.67;;;15.10;;
33714;SDS011;20043;50.998;4.754;2024-02-04T04:30:37;25.00;;;14.45;;
33714;SDS011;20043;50.998;4.754;2024-02-04T04:33:03;23.60;;;14.77;;
33714;SDS011;20043;50.998;4.754;2024-02-04T04:35:29;23.95;;;14.63;;
33714;SDS011;20043;50.998;4.754;2024-02-04T04:37:54;26.05;;;14.90;;
33714;SDS011;20043;50.998;4.754;2024-02-04T04:40:20;25.00;;;14.57;;
33714;SDS011;20043;50.998;4.754;2024-02-04T04:42:45;26.08;;;15.30;;
33714;SDS011;20043;50.998;4.754;2024-02-04T04:45:11;21.95;;;14.38;;
33714;SDS011;20043;50.998;4.754;2024-02-04T04:47:37;32.63;;;15.60;;
33714;SDS011;20043;50.998;4.754;2024-02-04T04:50:03;25.10;;;14.38;;
33714;SDS011;20043;50.998;4.754;2024-02-04T04:52:30;26.73;;;14.50;;
33714;SDS011;20043;50.998;4.754;2024-02-04T04:54:56;24.48;;;14.45;;
33714;SDS011;20043;50.998;4.754;2024-02-04T04:57:22;27.58;;;15.68;;
33714;SDS011;20043;50.998;4.754;2024-02-04T04:59:48;26.17;;;15.73;;
33714;SDS011;20043;50.998;4.754;2024-02-04T05:02:13;26.30;;;14.65;;
33714;SDS011;20043;50.998;4.754;2024-02-04T05:04:42;25.10;;;14.55;;
33714;SDS011;20043;50.998;4.754;2024-02-04T05:07:09;25.23;;;15.45;;
33714;SDS011;20043;50.998;4.754;2024-02-04T05:09:35;22.75;;;14.80;;
33714;SDS011;20043;50.998;4.754;2024-02-04T05:12:02;33.97;;;15.70;;
33714;SDS011;20043;50.998;4.754;2024-02-04T05:14:28;27.67;;;15.00;;
33714;SDS011;20043;50.998;4.754;2024-02-04T05:16:53;30.75;;;14.10;;
33714;SDS011;20043;50.998;4.754;2024-02-04T05:19:19;24.85;;;14.52;;
33714;SDS011;20043;50.998;4.754;2024-02-04T05:21:44;22.48;;;13.68;;
33714;SDS011;20043;50.998;4.754;2024-02-04T05:24:10;26.95;;;13.43;;
33714;SDS011;20043;50.998;4.754;2024-02-04T05:26:36;26.67;;;12.93;;
33714;SDS011;20043;50.998;4.754;2024-02-04T05:29:01;25.08;;;13.80;;
33714;SDS011;20043;50.998;4.754;2024-02-04T05:31:27;24.30;;;13.88;;
33714;SDS011;20043;50.998;4.754;2024-02-04T05:33:52;19.98;;;12.95;;
33714;SDS011;20043;50.998;4.754;2024-02-04T05:36:18;20.98;;;12.23;;
33714;SDS011;20043;50.998;4.754;2024-02-04T05:38:45;22.30;;;12.93;;
33714;SDS011;20043;50.998;4.754;2024-02-04T05:41:10;22.05;;;12.70;;
33714;SDS011;20043;50.998;4.754;2024-02-04T05:43:36;20.60;;;12.77;;
33714;SDS011;20043;50.998;4.754;2024-02-04T05:46:02;24.55;;;12.57;;
33714;SDS011;20043;50.998;4.754;2024-02-04T05:48:27;21.45;;;12.02;;
33714;SDS011;20043;50.998;4.754;2024-02-04T05:50:53;21.10;;;12.88;;
33714;SDS011;20043;50.998;4.754;2024-02-04T05:53:19;21.55;;;12.27;;
33714;SDS011;20043;50.998;4.754;2024-02-04T05:55:44;20.73;;;12.00;;
33714;SDS011;20043;50.998;4.754;2024-02-04T05:58:11;21.70;;;12.55;;
33714;SDS011;20043;50.998;4.754;2024-02-04T06:00:38;22.30;;;12.40;;
33714;SDS011;20043;50.998;4.754;2024-02-04T06:03:04;22.48;;;12.18;;
33714;SDS011;20043;50.998;4.754;2024-02-04T06:05:30;23.77;;;12.55;;
33714;SDS011;20043;50.998;4.754;2024-02-04T06:07:56;27.70;;;14.00;;
33714;SDS011;20043;50.998;4.754;2024-02-04T06:10:21;25.88;;;13.07;;
33714;SDS011;20043;50.998;4.754;2024-02-04T06:12:47;25.35;;;12.57;;
33714;SDS011;20043;50.998;4.754;2024-02-04T06:15:13;25.02;;;13.43;;
33714;SDS011;20043;50.998;4.754;2024-02-04T06:17:40;25.63;;;13.57;;
33714;SDS011;20043;50.998;4.754;2024-02-04T06:20:06;23.75;;;13.50;;
33714;SDS011;20043;50.998;4.754;2024-02-04T06:22:33;23.85;;;12.30;;
33714;SDS011;20043;50.998;4.754;2024-02-04T06:25:00;27.23;;;13.85;;
33714;SDS011;20043;50.998;4.754;2024-02-04T06:27:26;27.20;;;12.55;;
33714;SDS011;20043;50.998;4.754;2024-02-04T06:29:51;23.17;;;14.15;;
33714;SDS011;20043;50.998;4.754;2024-02-04T06:32:17;32.05;;;15.10;;
33714;SDS011;20043;50.998;4.754;2024-02-04T06:34:46;32.03;;;14.48;;
33714;SDS011;20043;50.998;4.754;2024-02-04T06:37:12;32.58;;;14.75;;
33714;SDS011;20043;50.998;4.754;2024-02-04T06:39:37;36.05;;;14.40;;
33714;SDS011;20043;50.998;4.754;2024-02-04T06:42:03;27.95;;;15.05;;
33714;SDS011;20043;50.998;4.754;2024-02-04T06:44:29;30.60;;;15.75;;
33714;SDS011;20043;50.998;4.754;2024-02-04T06:46:55;31.60;;;15.98;;
33714;SDS011;20043;50.998;4.754;2024-02-04T06:49:21;35.03;;;16.40;;
33714;SDS011;20043;50.998;4.754;2024-02-04T06:51:46;30.08;;;16.70;;
33714;SDS011;20043;50.998;4.754;2024-02-04T06:54:13;39.08;;;17.33;;
33714;SDS011;20043;50.998;4.754;2024-02-04T06:56:39;42.47;;;19.45;;
33714;SDS011;20043;50.998;4.754;2024-02-04T06:59:05;36.85;;;18.98;;
33714;SDS011;20043;50.998;4.754;2024-02-04T07:01:31;37.35;;;18.27;;
33714;SDS011;20043;50.998;4.754;2024-02-04T07:03:57;39.80;;;17.88;;
33714;SDS011;20043;50.998;4.754;2024-02-04T07:06:23;39.78;;;17.63;;
33714;SDS011;20043;50.998;4.754;2024-02-04T07:08:48;41.50;;;17.60;;
33714;SDS011;20043;50.998;4.754;2024-02-04T07:11:14;38.45;;;18.23;;
33714;SDS011;20043;50.998;4.754;2024-02-04T07:13:40;36.83;;;17.50;;
33714;SDS011;20043;50.998;4.754;2024-02-04T07:16:06;36.92;;;17.10;;
33714;SDS011;20043;50.998;4.754;2024-02-04T07:18:32;33.92;;;16.75;;
33714;SDS011;20043;50.998;4.754;2024-02-04T07:20:57;36.55;;;18.10;;
33714;SDS011;20043;50.998;4.754;2024-02-04T07:23:23;42.10;;;17.30;;
33714;SDS011;20043;50.998;4.754;2024-02-04T07:25:48;36.88;;;17.02;;
33714;SDS011;20043;50.998;4.754;2024-02-04T07:28:14;30.50;;;15.05;;
33714;SDS011;20043;50.998;4.754;2024-02-04T07:30:39;33.05;;;15.48;;
33714;SDS011;20043;50.998;4.754;2024-02-04T07:33:05;30.63;;;14.88;;
33714;SDS011;20043;50.998;4.754;2024-02-04T07:35:31;30.00;;;15.98;;
33714;SDS011;20043;50.998;4.754;2024-02-04T07:37:57;30.38;;;14.50;;
33714;SDS011;20043;50.998;4.754;2024-02-04T07:40:22;30.98;;;15.32;;
33714;SDS011;20043;50.998;4.754;2024-02-04T07:42:48;33.47;;;14.90;;
33714;SDS011;20043;50.998;4.754;2024-02-04T07:45:14;29.45;;;15.05;;
33714;SDS011;20043;50.998;4.754;2024-02-04T07:47:40;27.08;;;15.55;;
33714;SDS011;20043;50.998;4.754;2024-02-04T07:50:05;33.90;;;15.30;;
33714;SDS011;20043;50.998;4.754;2024-02-04T07:52:32;28.02;;;15.55;;
33714;SDS011;20043;50.998;4.754;2024-02-04T07:54:58;30.90;;;14.93;;
33714;SDS011;20043;50.998;4.754;2024-02-04T07:57:23;31.17;;;15.75;;
33714;SDS011;20043;50.998;4.754;2024-02-04T07:59:49;30.17;;;14.90;;
33714;SDS011;20043;50.998;4.754;2024-02-04T08:02:14;37.88;;;16.63;;
33714;SDS011;20043;50.998;4.754;2024-02-04T08:04:40;32.33;;;15.02;;
33714;SDS011;20043;50.998;4.754;2024-02-04T08:07:09;29.45;;;15.15;;
33714;SDS011;20043;50.998;4.754;2024-02-04T08:09:34;26.95;;;15.13;;
33714;SDS011;20043;50.998;4.754;2024-02-04T08:12:00;26.35;;;14.85;;
33714;SDS011;20043;50.998;4.754;2024-02-04T08:14:26;30.10;;;15.38;;
33714;SDS011;20043;50.998;4.754;2024-02-04T08:16:51;29.85;;;15.60;;
33714;SDS011;20043;50.998;4.754;2024-02-04T08:19:17;30.88;;;15.65;;
33714;SDS011;20043;50.998;4.754;2024-02-04T08:21:43;29.10;;;15.98;;
33714;SDS011;20043;50.998;4.754;2024-02-04T08:24:23;30.88;;;16.55;;
33714;SDS011;20043;50.998;4.754;2024-02-04T08:26:49;34.80;;;16.85;;
33714;SDS011;20043;50.998;4.754;2024-02-04T08:29:15;27.98;;;16.33;;
33714;SDS011;20043;50.998;4.754;2024-02-04T08:31:47;28.48;;;17.13;;
33714;SDS011;20043;50.998;4.754;2024-02-04T08:34:19;27.17;;;16.15;;
33714;SDS011;20043;50.998;4.754;2024-02-04T08:36:48;26.65;;;17.05;;
33714;SDS011;20043;50.998;4.754;2024-02-04T08:39:14;26.88;;;16.17;;
33714;SDS011;20043;50.998;4.754;2024-02-04T08:41:41;34.60;;;16.77;;
33714;SDS011;20043;50.998;4.754;2024-02-04T08:44:06;27.45;;;14.90;;
33714;SDS011;20043;50.998;4.754;2024-02-04T08:46:32;26.08;;;14.43;;
33714;SDS011;20043;50.998;4.754;2024-02-04T08:48:58;24.00;;;13.70;;
33714;SDS011;20043;50.998;4.754;2024-02-04T08:51:23;29.15;;;13.65;;
33714;SDS011;20043;50.998;4.754;2024-02-04T08:53:49;17.23;;;11.65;;
33714;SDS011;20043;50.998;4.754;2024-02-04T08:56:14;20.00;;;11.25;;
33714;SDS011;20043;50.998;4.754;2024-02-04T08:58:40;19.77;;;10.25;;
33714;SDS011;20043;50.998;4.754;2024-02-04T09:01:06;18.90;;;9.52;;
33714;SDS011;20043;50.998;4.754;2024-02-04T09:03:32;16.52;;;8.32;;
33714;SDS011;20043;50.998;4.754;2024-02-04T09:05:58;13.32;;;8.25;;
33714;SDS011;20043;50.998;4.754;2024-02-04T09:08:24;14.07;;;7.43;;
33714;SDS011;20043;50.998;4.754;2024-02-04T09:10:49;16.35;;;6.63;;
33714;SDS011;20043;50.998;4.754;2024-02-04T09:13:15;17.75;;;7.40;;
33714;SDS011;20043;50.998;4.754;2024-02-04T09:15:41;16.67;;;7.07;;
33714;SDS011;20043;50.998;4.754;2024-02-04T09:18:07;14.00;;;6.95;;
33714;SDS011;20043;50.998;4.754;2024-02-04T09:20:32;14.32;;;7.38;;
33714;SDS011;20043;50.998;4.754;2024-02-04T09:22:58;16.85;;;7.60;;
33714;SDS011;20043;50.998;4.754;2024-02-04T09:25:24;15.38;;;8.05;;
33714;SDS011;20043;50.998;4.754;2024-02-04T09:27:50;40.72;;;14.57;;
33714;SDS011;20043;50.998;4.754;2024-02-04T09:30:15;26.20;;;7.30;;
33714;SDS011;20043;50.998;4.754;2024-02-04T09:32:41;112.88;;;16.55;;
33714;SDS011;20043;50.998;4.754;2024-02-04T09:35:07;38.03;;;10.13;;
33714;SDS011;20043;50.998;4.754;2024-02-04T09:37:34;72.03;;;11.93;;
33714;SDS011;20043;50.998;4.754;2024-02-04T09:40:00;17.42;;;7.13;;
33714;SDS011;20043;50.998;4.754;2024-02-04T09:42:26;25.83;;;7.82;;
33714;SDS011;20043;50.998;4.754;2024-02-04T09:44:53;15.05;;;6.45;;
33714;SDS011;20043;50.998;4.754;2024-02-04T09:47:19;14.57;;;6.85;;
33714;SDS011;20043;50.998;4.754;2024-02-04T09:49:45;15.38;;;6.80;;
33714;SDS011;20043;50.998;4.754;2024-02-04T09:52:12;14.20;;;5.72;;
33714;SDS011;20043;50.998;4.754;2024-02-04T09:54:49;19.15;;;6.75;;
33714;SDS011;20043;50.998;4.754;2024-02-04T09:57:20;19.13;;;5.75;;
33714;SDS011;20043;50.998;4.754;2024-02-04T09:59:46;11.88;;;5.32;;
33714;SDS011;20043;50.998;4.754;2024-02-04T10:02:12;15.82;;;5.20;;
33714;SDS011;20043;50.998;4.754;2024-02-04T10:04:38;14.93;;;5.25;;
33714;SDS011;20043;50.998;4.754;2024-02-04T10:07:04;10.73;;;4.07;;
33714;SDS011;20043;50.998;4.754;2024-02-04T10:09:29;16.75;;;5.53;;
33714;SDS011;20043;50.998;4.754;2024-02-04T10:11:56;10.07;;;4.18;;
33714;SDS011;20043;50.998;4.754;2024-02-04T10:14:22;15.25;;;4.63;;
33714;SDS011;20043;50.998;4.754;2024-02-04T10:16:48;9.02;;;3.92;;
33714;SDS011;20043;50.998;4.754;2024-02-04T10:19:15;10.38;;;4.28;;
33714;SDS011;20043;50.998;4.754;2024-02-04T10:21:40;13.38;;;4.55;;
33714;SDS011;20043;50.998;4.754;2024-02-04T10:24:06;11.18;;;4.25;;
33714;SDS011;20043;50.998;4.754;2024-02-04T10:26:33;18.38;;;4.80;;
33714;SDS011;20043;50.998;4.754;2024-02-04T10:29:03;10.32;;;4.00;;
33714;SDS011;20043;50.998;4.754;2024-02-04T10:31:29;11.85;;;4.32;;
33714;SDS011;20043;50.998;4.754;2024-02-04T10:33:55;11.43;;;4.25;;
33714;SDS011;20043;50.998;4.754;2024-02-04T10:36:21;9.32;;;4.10;;
33714;SDS011;20043;50.998;4.754;2024-02-04T10:38:47;12.70;;;4.90;;
33714;SDS011;20043;50.998;4.754;2024-02-04T10:41:14;16.13;;;4.32;;
33714;SDS011;20043;50.998;4.754;2024-02-04T10:43:42;12.10;;;4.15;;
33714;SDS011;20043;50.998;4.754;2024-02-04T10:46:09;11.85;;;3.90;;
33714;SDS011;20043;50.998;4.754;2024-02-04T10:48:42;11.32;;;3.55;;
33714;SDS011;20043;50.998;4.754;2024-02-04T10:51:11;14.63;;;3.60;;
33714;SDS011;20043;50.998;4.754;2024-02-04T10:53:41;9.07;;;4.03;;
33714;SDS011;20043;50.998;4.754;2024-02-04T10:56:53;12.05;;;3.67;;
33714;SDS011;20043;50.998;4.754;2024-02-04T10:58:59;11.40;;;3.50;;
33714;SDS011;20043;50.998;4.754;2024-02-04T11:01:27;10.10;;;4.15;;
33714;SDS011;20043;50.998;4.754;2024-02-04T11:03:54;10.35;;;3.53;;
33714;SDS011;20043;50.998;4.754;2024-02-04T11:06:23;11.88;;;3.47;;
33714;SDS011;20043;50.998;4.754;2024-02-04T11:08:52;12.75;;;3.33;;
33714;SDS011;20043;50.998;4.754;2024-02-04T11:11:18;6.95;;;3.20;;
33714;SDS011;20043;50.998;4.754;2024-02-04T11:13:47;11.80;;;3.60;;
33714;SDS011;20043;50.998;4.754;2024-02-04T11:16:19;9.18;;;3.45;;
33714;SDS011;20043;50.998;4.754;2024-02-04T11:18:58;7.50;;;3.10;;
33714;SDS011;20043;50.998;4.754;2024-02-04T11:27:12;10.32;;;3.80;;
33714;SDS011;20043;50.998;4.754;2024-02-04T11:29:39;10.10;;;3.85;;
33714;SDS011;20043;50.998;4.754;2024-02-04T11:32:05;14.65;;;3.65;;
33714;SDS011;20043;50.998;4.754;2024-02-04T11:34:31;16.75;;;6.15;;
33714;SDS011;20043;50.998;4.754;2024-02-04T11:36:59;15.88;;;4.32;;
33714;SDS011;20043;50.998;4.754;2024-02-04T11:39:25;11.63;;;3.55;;
33714;SDS011;20043;50.998;4.754;2024-02-04T11:41:51;12.55;;;3.60;;
33714;SDS011;20043;50.998;4.754;2024-02-04T11:44:21;13.40;;;3.35;;
33714;SDS011;20043;50.998;4.754;2024-02-04T11:46:51;11.07;;;3.92;;
33714;SDS011;20043;50.998;4.754;2024-02-04T11:49:17;8.75;;;3.80;;
33714;SDS011;20043;50.998;4.754;2024-02-04T11:51:47;8.43;;;3.30;;
33714;SDS011;20043;50.998;4.754;2024-02-04T11:54:16;7.57;;;3.50;;
33714;SDS011;20043;50.998;4.754;2024-02-04T11:56:44;10.43;;;3.50;;
33714;SDS011;20043;50.998;4.754;2024-02-04T11:59:11;8.30;;;4.10;;
33714;SDS011;20043;50.998;4.754;2024-02-04T12:01:39;12.57;;;3.83;;
33714;SDS011;20043;50.998;4.754;2024-02-04T12:04:08;10.68;;;3.75;;
33714;SDS011;20043;50.998;4.754;2024-02-04T12:06:38;8.50;;;3.05;;
33714;SDS011;20043;50.998;4.754;2024-02-04T12:09:06;10.40;;;3.40;;
33714;SDS011;20043;50.998;4.754;2024-02-04T12:11:34;7.95;;;3.10;;
33714;SDS011;20043;50.998;4.754;2024-02-04T12:14:01;14.60;;;3.17;;
33714;SDS011;20043;50.998;4.754;2024-02-04T12:16:30;12.82;;;3.05;;
33714;SDS011;20043;50.998;4.754;2024-02-04T12:18:57;5.30;;;3.00;;
33714;SDS011;20043;50.998;4.754;2024-02-04T12:21:23;9.70;;;2.55;;
33714;SDS011;20043;50.998;4.754;2024-02-04T12:23:50;8.80;;;3.00;;
33714;SDS011;20043;50.998;4.754;2024-02-04T12:26:16;6.30;;;2.33;;
33714;SDS011;20043;50.998;4.754;2024-02-04T12:28:42;9.55;;;2.97;;
33714;SDS011;20043;50.998;4.754;2024-02-04T12:31:15;11.25;;;2.50;;
33714;SDS011;20043;50.998;4.754;2024-02-04T12:33:42;10.93;;;2.55;;
33714;SDS011;20043;50.998;4.754;2024-02-04T12:36:09;8.82;;;2.50;;
33714;SDS011;20043;50.998;4.754;2024-02-04T12:38:35;5.20;;;2.08;;
33714;SDS011;20043;50.998;4.754;2024-02-04T12:41:01;6.95;;;2.22;;
33714;SDS011;20043;50.998;4.754;2024-02-04T12:43:28;4.90;;;2.35;;
33714;SDS011;20043;50.998;4.754;2024-02-04T12:45:56;7.90;;;2.25;;
33714;SDS011;20043;50.998;4.754;2024-02-04T12:48:22;10.02;;;2.78;;
33714;SDS011;20043;50.998;4.754;2024-02-04T12:50:51;9.40;;;2.50;;
33714;SDS011;20043;50.998;4.754;2024-02-04T12:53:16;6.00;;;2.30;;
33714;SDS011;20043;50.998;4.754;2024-02-04T12:55:44;7.53;;;2.33;;
33714;SDS011;20043;50.998;4.754;2024-02-04T12:58:10;7.85;;;2.15;;
33714;SDS011;20043;50.998;4.754;2024-02-04T13:00:39;15.48;;;2.80;;
33714;SDS011;20043;50.998;4.754;2024-02-04T13:03:06;6.13;;;2.45;;
33714;SDS011;20043;50.998;4.754;2024-02-04T13:05:33;7.95;;;2.97;;
33714;SDS011;20043;50.998;4.754;2024-02-04T13:08:00;5.38;;;2.20;;
33714;SDS011;20043;50.998;4.754;2024-02-04T13:10:27;4.93;;;2.50;;
33714;SDS011;20043;50.998;4.754;2024-02-04T13:15:31;12.45;;;3.03;;
33714;SDS011;20043;50.998;4.754;2024-02-04T13:18:08;7.45;;;2.35;;
33714;SDS011;20043;50.998;4.754;2024-02-04T13:20:36;8.50;;;2.70;;
33714;SDS011;20043;50.998;4.754;2024-02-04T13:23:03;5.97;;;2.67;;
33714;SDS011;20043;50.998;4.754;2024-02-04T13:25:32;8.32;;;2.10;;
33714;SDS011;20043;50.998;4.754;2024-02-04T13:27:57;5.30;;;1.92;;
33714;SDS011;20043;50.998;4.754;2024-02-04T13:30:23;4.55;;;2.08;;
33714;SDS011;20043;50.998;4.754;2024-02-04T13:32:49;6.20;;;2.10;;
33714;SDS011;20043;50.998;4.754;2024-02-04T13:35:15;5.05;;;1.70;;
33714;SDS011;20043;50.998;4.754;2024-02-04T13:37:45;7.28;;;2.03;;
33714;SDS011;20043;50.998;4.754;2024-02-04T13:40:15;3.15;;;1.35;;
33714;SDS011;20043;50.998;4.754;2024-02-04T13:42:44;7.57;;;1.67;;
33714;SDS011;20043;50.998;4.754;2024-02-04T13:45:11;5.25;;;1.65;;
33714;SDS011;20043;50.998;4.754;2024-02-04T13:47:40;7.10;;;2.05;;
33714;SDS011;20043;50.998;4.754;2024-02-04T13:50:06;4.80;;;1.88;;
33714;SDS011;20043;50.998;4.754;2024-02-04T13:52:33;3.40;;;1.70;;
33714;SDS011;20043;50.998;4.754;2024-02-04T13:54:59;4.45;;;1.88;;
33714;SDS011;20043;50.998;4.754;2024-02-04T13:57:25;11.52;;;1.80;;
33714;SDS011;20043;50.998;4.754;2024-02-04T13:59:51;4.90;;;1.92;;
33714;SDS011;20043;50.998;4.754;2024-02-04T14:02:16;7.20;;;1.60;;
33714;SDS011;20043;50.998;4.754;2024-02-04T14:04:42;5.13;;;1.83;;
33714;SDS011;20043;50.998;4.754;2024-02-04T14:07:08;3.63;;;1.60;;
33714;SDS011;20043;50.998;4.754;2024-02-04T14:09:34;4.10;;;2.00;;
33714;SDS011;20043;50.998;4.754;2024-02-04T14:12:01;4.45;;;1.80;;
33714;SDS011;20043;50.998;4.754;2024-02-04T14:14:28;7.82;;;2.00;;
33714;SDS011;20043;50.998;4.754;2024-02-04T14:16:54;5.32;;;2.10;;
33714;SDS011;20043;50.998;4.754;2024-02-04T14:19:20;2.75;;;1.30;;
33714;SDS011;20043;50.998;4.754;2024-02-04T14:21:46;5.53;;;1.90;;
33714;SDS011;20043;50.998;4.754;2024-02-04T14:24:11;5.10;;;2.05;;
33714;SDS011;20043;50.998;4.754;2024-02-04T14:26:38;3.72;;;1.67;;
33714;SDS011;20043;50.998;4.754;2024-02-04T14:29:04;7.13;;;1.88;;
33714;SDS011;20043;50.998;4.754;2024-02-04T14:31:29;7.13;;;1.77;;
33714;SDS011;20043;50.998;4.754;2024-02-04T14:33:55;2.95;;;1.48;;
33714;SDS011;20043;50.998;4.754;2024-02-04T14:36:21;12.18;;;2.33;;
33714;SDS011;20043;50.998;4.754;2024-02-04T14:38:46;6.10;;;1.98;;